DLH33P EDDM-LFMN
Flight info
| Callsign | DLH33P |
|---|---|
| Flight time | N/A |
| Altitude | 35000 |
| Route | TURBU7S/26L TURBU Y107 TOBSO DCT BAKOR DCT RENTA DCT ATPED DCT LUSIL DCT EVANO DCT ENOBA Z185 ASBOP/N0383F190 Z185 BORDI |
| Aircraft | A321/M-SDE3FGHIRWY/LB1 |
Departure
| Time | 2026-05-07 18:53 |
|---|---|
| Airport | Munich Airport (EDDM) |
Arrival
| Time | N/A |
|---|---|
| Airport | Nice-Côte d'Azur Airport (LFMN) |
| Time | Latitude | Longitude | Altitude | Speed | Heading |
|---|---|---|---|---|---|
| 2026-05-07 18:32 | 48.35162 | 11.79370 | 1486 ft | 0 kts | 263° |
| 2026-05-07 18:42 | 48.35164 | 11.79396 | 1469 ft | 3 kts | 263° |
| 2026-05-07 18:42 | 48.35167 | 11.79427 | 1476 ft | 3 kts | 262° |
| 2026-05-07 18:43 | 48.35170 | 11.79457 | 1473 ft | 3 kts | 258° |
| 2026-05-07 18:43 | 48.35174 | 11.79481 | 1477 ft | 2 kts | 240° |
| 2026-05-07 18:43 | 48.35180 | 11.79494 | 1480 ft | 1 kts | 206° |
| 2026-05-07 18:43 | 48.35188 | 11.79499 | 1473 ft | 1 kts | 181° |
| 2026-05-07 18:44 | 48.35196 | 11.79499 | 1474 ft | 1 kts | 174° |
| 2026-05-07 18:44 | 48.35204 | 11.79498 | 1482 ft | 0 kts | 173° |
| 2026-05-07 18:46 | 48.35201 | 11.79498 | 1483 ft | 2 kts | 174° |
| 2026-05-07 18:46 | 48.35136 | 11.79509 | 1481 ft | 14 kts | 173° |
| 2026-05-07 18:47 | 48.35036 | 11.79526 | 1485 ft | 15 kts | 173° |
| 2026-05-07 18:47 | 48.34934 | 11.79544 | 1485 ft | 13 kts | 173° |
| 2026-05-07 18:47 | 48.34883 | 11.79553 | 1484 ft | 1 kts | 173° |
| 2026-05-07 18:47 | 48.34870 | 11.79555 | 1477 ft | 3 kts | 173° |
| 2026-05-07 18:48 | 48.34853 | 11.79558 | 1472 ft | 0 kts | 173° |
| 2026-05-07 18:50 | 48.34832 | 11.79562 | 1485 ft | 7 kts | 171° |
| 2026-05-07 18:51 | 48.34800 | 11.79646 | 1479 ft | 13 kts | 92° |
| 2026-05-07 18:51 | 48.34809 | 11.79799 | 1479 ft | 15 kts | 83° |
| 2026-05-07 18:51 | 48.34822 | 11.79964 | 1485 ft | 17 kts | 83° |
| 2026-05-07 18:51 | 48.34820 | 11.80138 | 1478 ft | 17 kts | 117° |
| 2026-05-07 18:52 | 48.34727 | 11.80242 | 1482 ft | 18 kts | 171° |
| 2026-05-07 18:52 | 48.34599 | 11.80265 | 1479 ft | 19 kts | 173° |
| 2026-05-07 18:52 | 48.34488 | 11.80282 | 1482 ft | 12 kts | 181° |
| 2026-05-07 18:52 | 48.34461 | 11.80197 | 1480 ft | 12 kts | 263° |
| 2026-05-07 18:53 | 48.34430 | 11.79796 | 1481 ft | 75 kts | 263° |
| 2026-05-07 18:53 | 48.34343 | 11.78676 | 1486 ft | 139 kts | 263° |
| 2026-05-07 18:53 | 48.34210 | 11.76973 | 1559 ft | 181 kts | 265° |
| 2026-05-07 18:53 | 48.34059 | 11.75126 | 2353 ft | 176 kts | 264° |
| 2026-05-07 18:54 | 48.33899 | 11.73282 | 2957 ft | 184 kts | 264° |
| 2026-05-07 18:54 | 48.33317 | 11.71484 | 3275 ft | 205 kts | 223° |
| 2026-05-07 18:54 | 48.31961 | 11.70650 | 3618 ft | 219 kts | 188° |
| 2026-05-07 18:54 | 48.30435 | 11.70508 | 4198 ft | 222 kts | 182° |
| 2026-05-07 18:55 | 48.28891 | 11.70776 | 4786 ft | 227 kts | 161° |
| 2026-05-07 18:55 | 48.27483 | 11.71946 | 5227 ft | 242 kts | 144° |
| 2026-05-07 18:55 | 48.26050 | 11.73505 | 5464 ft | 265 kts | 146° |
| 2026-05-07 18:55 | 48.24506 | 11.75115 | 6055 ft | 274 kts | 147° |
| 2026-05-07 18:56 | 48.22912 | 11.76745 | 6765 ft | 279 kts | 148° |
| 2026-05-07 18:56 | 48.21225 | 11.78193 | 7438 ft | 281 kts | 161° |
| 2026-05-07 18:56 | 48.19383 | 11.79231 | 8170 ft | 284 kts | 162° |
| 2026-05-07 18:56 | 48.17525 | 11.80272 | 8916 ft | 287 kts | 163° |
| 2026-05-07 18:57 | 48.15643 | 11.81323 | 9654 ft | 290 kts | 163° |
| 2026-05-07 18:57 | 48.13743 | 11.82383 | 10301 ft | 297 kts | 163° |
| 2026-05-07 18:57 | 48.11722 | 11.83505 | 10462 ft | 320 kts | 163° |
| 2026-05-07 18:57 | 48.09564 | 11.84703 | 10588 ft | 341 kts | 162° |
| 2026-05-07 18:58 | 48.07279 | 11.85979 | 10714 ft | 361 kts | 162° |
| 2026-05-07 18:58 | 48.04828 | 11.87003 | 10987 ft | 369 kts | 176° |
| 2026-05-07 18:58 | 48.02255 | 11.87097 | 11505 ft | 371 kts | 183° |
| 2026-05-07 18:58 | 47.99665 | 11.87075 | 12090 ft | 374 kts | 183° |
| 2026-05-07 18:59 | 47.97058 | 11.87046 | 12691 ft | 376 kts | 183° |
| 2026-05-07 18:59 | 47.94427 | 11.87010 | 13264 ft | 379 kts | 183° |
| 2026-05-07 18:59 | 47.91779 | 11.86971 | 13852 ft | 382 kts | 183° |
| 2026-05-07 18:59 | 47.89110 | 11.86932 | 14364 ft | 386 kts | 183° |
| 2026-05-07 19:00 | 47.86413 | 11.86895 | 14868 ft | 389 kts | 183° |
| 2026-05-07 19:00 | 47.83690 | 11.86860 | 15350 ft | 393 kts | 183° |
| 2026-05-07 19:00 | 47.80945 | 11.86826 | 15826 ft | 396 kts | 183° |
| 2026-05-07 19:00 | 47.78179 | 11.86793 | 16295 ft | 400 kts | 183° |
| 2026-05-07 19:01 | 47.75382 | 11.86755 | 16763 ft | 403 kts | 183° |
| 2026-05-07 19:01 | 47.72600 | 11.86714 | 17212 ft | 407 kts | 183° |
| 2026-05-07 19:01 | 47.69761 | 11.86669 | 17676 ft | 410 kts | 183° |
| 2026-05-07 19:01 | 47.66892 | 11.86623 | 18104 ft | 413 kts | 183° |
| 2026-05-07 19:02 | 47.64005 | 11.86579 | 18499 ft | 416 kts | 182° |
| 2026-05-07 19:02 | 47.61101 | 11.86542 | 18909 ft | 419 kts | 182° |
| 2026-05-07 19:02 | 47.58176 | 11.86510 | 19317 ft | 421 kts | 182° |
| 2026-05-07 19:02 | 47.55244 | 11.86474 | 19746 ft | 423 kts | 182° |
| 2026-05-07 19:03 | 47.52292 | 11.86432 | 20177 ft | 425 kts | 182° |
| 2026-05-07 19:03 | 47.49327 | 11.86391 | 20600 ft | 427 kts | 183° |
| 2026-05-07 19:03 | 47.46342 | 11.86352 | 20979 ft | 430 kts | 182° |
| 2026-05-07 19:03 | 47.43344 | 11.86311 | 21399 ft | 432 kts | 183° |
| 2026-05-07 19:04 | 47.40327 | 11.86269 | 21834 ft | 434 kts | 183° |
| 2026-05-07 19:04 | 47.37298 | 11.86229 | 22249 ft | 436 kts | 183° |
| 2026-05-07 19:04 | 47.34259 | 11.86188 | 22661 ft | 438 kts | 183° |
| 2026-05-07 19:04 | 47.31203 | 11.86146 | 23055 ft | 440 kts | 183° |
| 2026-05-07 19:05 | 47.28130 | 11.86107 | 23431 ft | 443 kts | 183° |
| 2026-05-07 19:05 | 47.25043 | 11.86069 | 23762 ft | 445 kts | 183° |
| 2026-05-07 19:05 | 47.21948 | 11.86033 | 24073 ft | 447 kts | 183° |
| 2026-05-07 19:05 | 47.18860 | 11.85997 | 24366 ft | 449 kts | 183° |
| 2026-05-07 19:06 | 47.15730 | 11.85955 | 24689 ft | 451 kts | 183° |
| 2026-05-07 19:06 | 47.09390 | 11.85869 | 25359 ft | 455 kts | 183° |
| 2026-05-07 19:06 | 47.06260 | 11.85821 | 25689 ft | 457 kts | 184° |
| 2026-05-07 19:07 | 47.03085 | 11.85757 | 25993 ft | 458 kts | 186° |
| 2026-05-07 19:07 | 46.99920 | 11.85226 | 26299 ft | 456 kts | 194° |
| 2026-05-07 19:07 | 46.96819 | 11.84244 | 26544 ft | 456 kts | 196° |
| 2026-05-07 19:07 | 46.93714 | 11.83249 | 26804 ft | 458 kts | 196° |
| 2026-05-07 19:08 | 46.90593 | 11.82257 | 27051 ft | 459 kts | 196° |
| 2026-05-07 19:08 | 46.87466 | 11.81265 | 27297 ft | 460 kts | 196° |
| 2026-05-07 19:08 | 46.84343 | 11.80275 | 27644 ft | 459 kts | 196° |
| 2026-05-07 19:08 | 46.81227 | 11.79288 | 28037 ft | 457 kts | 197° |
| 2026-05-07 19:09 | 46.78126 | 11.78304 | 28398 ft | 455 kts | 197° |
| 2026-05-07 19:09 | 46.75039 | 11.77325 | 28764 ft | 454 kts | 197° |
| 2026-05-07 19:09 | 46.71951 | 11.76349 | 29121 ft | 453 kts | 197° |
| 2026-05-07 19:09 | 46.68874 | 11.75376 | 29497 ft | 452 kts | 198° |
| 2026-05-07 19:10 | 46.65901 | 11.74033 | 29864 ft | 443 kts | 208° |
| 2026-05-07 19:10 | 46.63199 | 11.71982 | 30205 ft | 434 kts | 218° |
| 2026-05-07 19:10 | 46.60845 | 11.69314 | 30502 ft | 426 kts | 228° |
| 2026-05-07 19:10 | 46.58874 | 11.66132 | 30774 ft | 420 kts | 237° |
| 2026-05-07 19:11 | 46.57325 | 11.62572 | 30963 ft | 415 kts | 246° |
| 2026-05-07 19:11 | 46.56033 | 11.58835 | 30998 ft | 414 kts | 246° |
| 2026-05-07 19:11 | 46.53446 | 11.51352 | 30986 ft | 414 kts | 246° |
| 2026-05-07 19:12 | 46.50853 | 11.43905 | 30972 ft | 412 kts | 246° |
| 2026-05-07 19:12 | 46.48252 | 11.36483 | 30977 ft | 414 kts | 246° |
| 2026-05-07 19:13 | 46.45645 | 11.29049 | 30975 ft | 413 kts | 246° |
| 2026-05-07 19:13 | 46.43046 | 11.21640 | 30977 ft | 412 kts | 246° |
| 2026-05-07 19:14 | 46.40448 | 11.14256 | 31113 ft | 413 kts | 245° |
| 2026-05-07 19:14 | 46.37835 | 11.06847 | 31113 ft | 413 kts | 245° |
| 2026-05-07 19:15 | 46.35210 | 10.99431 | 31106 ft | 414 kts | 245° |
| 2026-05-07 19:15 | 46.32575 | 10.92027 | 31107 ft | 414 kts | 245° |
| 2026-05-07 19:16 | 46.29940 | 10.84640 | 31097 ft | 414 kts | 245° |
| 2026-05-07 19:16 | 46.27343 | 10.77201 | 31091 ft | 413 kts | 246° |
| 2026-05-07 19:17 | 46.24780 | 10.69762 | 31080 ft | 413 kts | 246° |
| 2026-05-07 19:17 | 46.22198 | 10.62330 | 31079 ft | 414 kts | 246° |
| 2026-05-07 19:18 | 46.19596 | 10.54910 | 31067 ft | 414 kts | 245° |
| 2026-05-07 19:18 | 46.16981 | 10.47499 | 31063 ft | 414 kts | 245° |
| 2026-05-07 19:19 | 46.14372 | 10.40082 | 31063 ft | 415 kts | 245° |
| 2026-05-07 19:19 | 46.11358 | 10.33011 | 31061 ft | 420 kts | 229° |
| 2026-05-07 19:20 | 46.07618 | 10.28467 | 31052 ft | 426 kts | 223° |
| 2026-05-07 19:20 | 46.03002 | 10.23143 | 31044 ft | 425 kts | 223° |
| 2026-05-07 19:21 | 45.98384 | 10.17839 | 31040 ft | 425 kts | 223° |
| 2026-05-07 19:21 | 45.93783 | 10.12531 | 31036 ft | 424 kts | 223° |
| 2026-05-07 19:22 | 45.89198 | 10.07240 | 31027 ft | 423 kts | 223° |
| 2026-05-07 19:22 | 45.84599 | 10.01952 | 31017 ft | 423 kts | 223° |
| 2026-05-07 19:23 | 45.80005 | 9.96690 | 31006 ft | 423 kts | 223° |
| 2026-05-07 19:23 | 45.75408 | 9.91428 | 30998 ft | 423 kts | 223° |
| 2026-05-07 19:24 | 45.70805 | 9.86172 | 30993 ft | 423 kts | 223° |
| 2026-05-07 19:24 | 45.66204 | 9.80918 | 31001 ft | 423 kts | 223° |
| 2026-05-07 19:25 | 45.61591 | 9.75675 | 31000 ft | 424 kts | 222° |
| 2026-05-07 19:25 | 45.56974 | 9.70445 | 31004 ft | 423 kts | 222° |
| 2026-05-07 19:26 | 45.52362 | 9.65224 | 31027 ft | 423 kts | 222° |
| 2026-05-07 19:26 | 45.47771 | 9.60040 | 31025 ft | 423 kts | 222° |
| 2026-05-07 19:27 | 45.43158 | 9.54839 | 31023 ft | 423 kts | 222° |
| 2026-05-07 19:27 | 45.38542 | 9.49643 | 31010 ft | 423 kts | 222° |
| 2026-05-07 19:28 | 45.33920 | 9.44455 | 30972 ft | 423 kts | 222° |
| 2026-05-07 19:28 | 45.29295 | 9.39279 | 30975 ft | 423 kts | 222° |
| 2026-05-07 19:29 | 45.24672 | 9.34115 | 30975 ft | 423 kts | 222° |
| 2026-05-07 19:29 | 45.20050 | 9.28963 | 30979 ft | 422 kts | 222° |
| 2026-05-07 19:30 | 45.15426 | 9.23828 | 30983 ft | 422 kts | 221° |
| 2026-05-07 19:30 | 45.10812 | 9.18709 | 30994 ft | 421 kts | 221° |
| 2026-05-07 19:31 | 45.06200 | 9.13600 | 30997 ft | 421 kts | 221° |
| 2026-05-07 19:31 | 45.01589 | 9.08504 | 31001 ft | 421 kts | 221° |
| 2026-05-07 19:32 | 44.96981 | 9.03411 | 31001 ft | 420 kts | 221° |
| 2026-05-07 19:32 | 44.92383 | 8.98335 | 31003 ft | 420 kts | 221° |
| 2026-05-07 19:33 | 44.87775 | 8.93276 | 31004 ft | 419 kts | 221° |
| 2026-05-07 19:33 | 44.83171 | 8.88241 | 30879 ft | 420 kts | 221° |
| 2026-05-07 19:34 | 44.80723 | 8.85959 | 30628 ft | 426 kts | 211° |